sensor_id;sensor_type;location;lat;lon;timestamp;P1;durP1;ratioP1;P2;durP2;ratioP2
51594;SDS011;37677;53.254;6.594;2023-06-22T00:03:32;15.63;;;14.15;;
51594;SDS011;37677;53.254;6.594;2023-06-22T00:05:58;14.27;;;12.35;;
51594;SDS011;37677;53.254;6.594;2023-06-22T00:08:52;14.77;;;13.35;;
51594;SDS011;37677;53.254;6.594;2023-06-22T00:11:18;14.60;;;13.32;;
51594;SDS011;37677;53.254;6.594;2023-06-22T00:14:04;15.45;;;13.88;;
51594;SDS011;37677;53.254;6.594;2023-06-22T00:16:32;15.98;;;14.35;;
51594;SDS011;37677;53.254;6.594;2023-06-22T00:21:55;16.02;;;14.60;;
51594;SDS011;37677;53.254;6.594;2023-06-22T00:24:49;16.40;;;14.80;;
51594;SDS011;37677;53.254;6.594;2023-06-22T00:30:00;17.05;;;15.35;;
51594;SDS011;37677;53.254;6.594;2023-06-22T00:32:29;16.48;;;14.18;;
51594;SDS011;37677;53.254;6.594;2023-06-22T00:34:55;15.50;;;13.93;;
51594;SDS011;37677;53.254;6.594;2023-06-22T00:37:21;17.05;;;15.23;;
51594;SDS011;37677;53.254;6.594;2023-06-22T00:39:51;16.20;;;14.60;;
51594;SDS011;37677;53.254;6.594;2023-06-22T00:42:20;16.45;;;14.88;;
51594;SDS011;37677;53.254;6.594;2023-06-22T00:44:46;15.90;;;14.30;;
51594;SDS011;37677;53.254;6.594;2023-06-22T00:49:45;14.80;;;13.32;;
51594;SDS011;37677;53.254;6.594;2023-06-22T00:52:13;15.57;;;14.05;;
51594;SDS011;37677;53.254;6.594;2023-06-22T00:54:49;15.65;;;13.90;;
51594;SDS011;37677;53.254;6.594;2023-06-22T00:57:15;13.13;;;11.75;;
51594;SDS011;37677;53.254;6.594;2023-06-22T00:59:48;13.48;;;12.10;;
51594;SDS011;37677;53.254;6.594;2023-06-22T01:02:18;13.07;;;11.82;;
51594;SDS011;37677;53.254;6.594;2023-06-22T01:04:49;12.35;;;11.18;;
51594;SDS011;37677;53.254;6.594;2023-06-22T01:15:08;12.38;;;11.18;;
51594;SDS011;37677;53.254;6.594;2023-06-22T01:17:41;13.35;;;11.63;;
51594;SDS011;37677;53.254;6.594;2023-06-22T01:20:09;13.43;;;12.02;;
51594;SDS011;37677;53.254;6.594;2023-06-22T01:22:51;13.40;;;10.82;;
51594;SDS011;37677;53.254;6.594;2023-06-22T01:25:21;12.48;;;11.27;;
51594;SDS011;37677;53.254;6.594;2023-06-22T01:30:30;12.77;;;11.48;;
51594;SDS011;37677;53.254;6.594;2023-06-22T01:32:59;11.90;;;10.80;;
51594;SDS011;37677;53.254;6.594;2023-06-22T01:35:26;12.13;;;10.95;;
51594;SDS011;37677;53.254;6.594;2023-06-22T01:37:54;11.32;;;10.23;;
51594;SDS011;37677;53.254;6.594;2023-06-22T01:40:20;13.45;;;12.15;;
51594;SDS011;37677;53.254;6.594;2023-06-22T01:42:47;13.48;;;12.18;;
51594;SDS011;37677;53.254;6.594;2023-06-22T01:45:15;11.65;;;10.60;;
51594;SDS011;37677;53.254;6.594;2023-06-22T01:47:41;12.23;;;11.13;;
51594;SDS011;37677;53.254;6.594;2023-06-22T01:50:08;10.77;;;9.88;;
51594;SDS011;37677;53.254;6.594;2023-06-22T01:52:34;10.68;;;9.50;;
51594;SDS011;37677;53.254;6.594;2023-06-22T01:55:09;10.45;;;9.30;;
51594;SDS011;37677;53.254;6.594;2023-06-22T02:00:07;11.15;;;10.05;;
51594;SDS011;37677;53.254;6.594;2023-06-22T02:02:44;14.00;;;12.60;;
51594;SDS011;37677;53.254;6.594;2023-06-22T02:05:35;13.63;;;12.27;;
51594;SDS011;37677;53.254;6.594;2023-06-22T02:08:18;13.32;;;12.05;;
51594;SDS011;37677;53.254;6.594;2023-06-22T02:10:59;12.07;;;10.90;;
51594;SDS011;37677;53.254;6.594;2023-06-22T02:13:39;12.23;;;11.18;;
51594;SDS011;37677;53.254;6.594;2023-06-22T02:16:09;11.05;;;10.05;;
51594;SDS011;37677;53.254;6.594;2023-06-22T02:21:28;11.60;;;10.50;;
51594;SDS011;37677;53.254;6.594;2023-06-22T02:24:04;10.93;;;9.93;;
51594;SDS011;37677;53.254;6.594;2023-06-22T02:26:30;12.45;;;11.20;;
51594;SDS011;37677;53.254;6.594;2023-06-22T02:29:16;12.88;;;11.80;;
51594;SDS011;37677;53.254;6.594;2023-06-22T02:31:43;11.80;;;10.80;;
51594;SDS011;37677;53.254;6.594;2023-06-22T02:34:09;10.85;;;9.85;;
51594;SDS011;37677;53.254;6.594;2023-06-22T02:36:36;13.18;;;11.48;;
51594;SDS011;37677;53.254;6.594;2023-06-22T02:39:02;11.45;;;10.45;;
51594;SDS011;37677;53.254;6.594;2023-06-22T02:41:29;11.20;;;10.20;;
51594;SDS011;37677;53.254;6.594;2023-06-22T02:43:55;11.93;;;10.85;;
51594;SDS011;37677;53.254;6.594;2023-06-22T02:46:22;11.55;;;10.55;;
51594;SDS011;37677;53.254;6.594;2023-06-22T02:48:48;12.73;;;11.43;;
51594;SDS011;37677;53.254;6.594;2023-06-22T02:51:14;12.77;;;11.52;;
51594;SDS011;37677;53.254;6.594;2023-06-22T02:53:45;14.73;;;13.23;;
51594;SDS011;37677;53.254;6.594;2023-06-22T02:56:21;12.57;;;11.27;;
51594;SDS011;37677;53.254;6.594;2023-06-22T02:58:53;11.60;;;10.50;;
51594;SDS011;37677;53.254;6.594;2023-06-22T03:04:10;12.73;;;11.63;;
51594;SDS011;37677;53.254;6.594;2023-06-22T03:06:45;12.43;;;11.32;;
51594;SDS011;37677;53.254;6.594;2023-06-22T03:09:24;12.52;;;9.93;;
51594;SDS011;37677;53.254;6.594;2023-06-22T03:11:54;11.18;;;9.95;;
51594;SDS011;37677;53.254;6.594;2023-06-22T03:14:21;11.10;;;9.85;;
51594;SDS011;37677;53.254;6.594;2023-06-22T03:16:48;10.45;;;9.55;;
51594;SDS011;37677;53.254;6.594;2023-06-22T03:19:17;11.70;;;10.48;;
51594;SDS011;37677;53.254;6.594;2023-06-22T03:21:49;10.68;;;9.65;;
51594;SDS011;37677;53.254;6.594;2023-06-22T03:24:17;10.30;;;9.50;;
51594;SDS011;37677;53.254;6.594;2023-06-22T03:26:43;9.32;;;8.43;;
51594;SDS011;37677;53.254;6.594;2023-06-22T03:29:26;8.27;;;7.60;;
51594;SDS011;37677;53.254;6.594;2023-06-22T03:31:53;8.27;;;7.68;;
51594;SDS011;37677;53.254;6.594;2023-06-22T03:34:20;8.23;;;7.63;;
51594;SDS011;37677;53.254;6.594;2023-06-22T03:36:46;7.75;;;7.15;;
51594;SDS011;37677;53.254;6.594;2023-06-22T03:39:13;7.78;;;7.18;;
51594;SDS011;37677;53.254;6.594;2023-06-22T03:41:39;8.90;;;8.05;;
51594;SDS011;37677;53.254;6.594;2023-06-22T03:46:47;7.97;;;7.30;;
51594;SDS011;37677;53.254;6.594;2023-06-22T03:49:19;9.43;;;8.63;;
51594;SDS011;37677;53.254;6.594;2023-06-22T03:54:15;8.50;;;7.80;;
51594;SDS011;37677;53.254;6.594;2023-06-22T03:56:41;9.27;;;8.15;;
51594;SDS011;37677;53.254;6.594;2023-06-22T03:59:10;8.20;;;7.50;;
51594;SDS011;37677;53.254;6.594;2023-06-22T04:01:43;10.15;;;9.35;;
51594;SDS011;37677;53.254;6.594;2023-06-22T04:04:10;11.10;;;10.10;;
51594;SDS011;37677;53.254;6.594;2023-06-22T04:06:39;13.18;;;11.48;;
51594;SDS011;37677;53.254;6.594;2023-06-22T04:09:07;14.95;;;12.50;;
51594;SDS011;37677;53.254;6.594;2023-06-22T04:11:34;13.27;;;11.43;;
51594;SDS011;37677;53.254;6.594;2023-06-22T04:14:00;13.68;;;11.27;;
51594;SDS011;37677;53.254;6.594;2023-06-22T04:16:26;13.68;;;12.27;;
51594;SDS011;37677;53.254;6.594;2023-06-22T04:18:56;14.27;;;12.60;;
51594;SDS011;37677;53.254;6.594;2023-06-22T04:21:24;10.82;;;9.82;;
51594;SDS011;37677;53.254;6.594;2023-06-22T04:23:56;11.05;;;10.05;;
51594;SDS011;37677;53.254;6.594;2023-06-22T04:26:22;11.35;;;10.27;;
51594;SDS011;37677;53.254;6.594;2023-06-22T04:28:49;10.48;;;9.48;;
51594;SDS011;37677;53.254;6.594;2023-06-22T04:31:17;11.63;;;9.50;;
51594;SDS011;37677;53.254;6.594;2023-06-22T04:33:48;10.13;;;9.18;;
51594;SDS011;37677;53.254;6.594;2023-06-22T04:36:16;11.93;;;10.82;;
51594;SDS011;37677;53.254;6.594;2023-06-22T04:38:46;12.00;;;10.90;;
51594;SDS011;37677;53.254;6.594;2023-06-22T04:41:12;14.13;;;12.07;;
51594;SDS011;37677;53.254;6.594;2023-06-22T04:46:21;11.82;;;10.73;;
51594;SDS011;37677;53.254;6.594;2023-06-22T04:48:47;12.60;;;11.45;;
51594;SDS011;37677;53.254;6.594;2023-06-22T04:51:13;11.95;;;10.80;;
51594;SDS011;37677;53.254;6.594;2023-06-22T04:53:40;12.85;;;11.77;;
51594;SDS011;37677;53.254;6.594;2023-06-22T04:56:06;12.50;;;11.43;;
51594;SDS011;37677;53.254;6.594;2023-06-22T04:58:34;12.43;;;11.18;;
51594;SDS011;37677;53.254;6.594;2023-06-22T05:01:00;13.57;;;11.82;;
51594;SDS011;37677;53.254;6.594;2023-06-22T05:03:29;13.43;;;12.32;;
51594;SDS011;37677;53.254;6.594;2023-06-22T05:05:57;12.93;;;11.63;;
51594;SDS011;37677;53.254;6.594;2023-06-22T05:10:55;14.27;;;13.07;;
51594;SDS011;37677;53.254;6.594;2023-06-22T05:13:24;19.13;;;16.70;;
51594;SDS011;37677;53.254;6.594;2023-06-22T05:15:51;17.20;;;14.73;;
51594;SDS011;37677;53.254;6.594;2023-06-22T05:18:17;14.38;;;12.95;;
51594;SDS011;37677;53.254;6.594;2023-06-22T05:20:48;20.75;;;18.85;;
51594;SDS011;37677;53.254;6.594;2023-06-22T05:23:14;17.95;;;15.20;;
51594;SDS011;37677;53.254;6.594;2023-06-22T05:25:43;19.77;;;17.98;;
51594;SDS011;37677;53.254;6.594;2023-06-22T05:28:11;22.42;;;20.23;;
51594;SDS011;37677;53.254;6.594;2023-06-22T05:30:39;19.95;;;18.20;;
51594;SDS011;37677;53.254;6.594;2023-06-22T05:33:05;23.33;;;21.23;;
51594;SDS011;37677;53.254;6.594;2023-06-22T05:35:31;23.40;;;20.98;;
51594;SDS011;37677;53.254;6.594;2023-06-22T05:37:57;26.38;;;23.83;;
51594;SDS011;37677;53.254;6.594;2023-06-22T05:40:23;30.17;;;27.08;;
51594;SDS011;37677;53.254;6.594;2023-06-22T05:42:57;27.65;;;25.00;;
51594;SDS011;37677;53.254;6.594;2023-06-22T05:45:27;27.75;;;24.77;;
51594;SDS011;37677;53.254;6.594;2023-06-22T05:47:53;29.27;;;26.27;;
51594;SDS011;37677;53.254;6.594;2023-06-22T05:50:19;28.60;;;25.80;;
51594;SDS011;37677;53.254;6.594;2023-06-22T05:52:45;30.02;;;26.85;;
51594;SDS011;37677;53.254;6.594;2023-06-22T05:55:15;32.70;;;26.88;;
51594;SDS011;37677;53.254;6.594;2023-06-22T05:57:43;31.38;;;28.27;;
51594;SDS011;37677;53.254;6.594;2023-06-22T06:00:10;34.67;;;30.13;;
51594;SDS011;37677;53.254;6.594;2023-06-22T06:02:38;35.42;;;31.92;;
51594;SDS011;37677;53.254;6.594;2023-06-22T06:07:46;33.00;;;29.42;;
51594;SDS011;37677;53.254;6.594;2023-06-22T06:10:16;32.63;;;29.20;;
51594;SDS011;37677;53.254;6.594;2023-06-22T06:12:46;32.60;;;29.27;;
51594;SDS011;37677;53.254;6.594;2023-06-22T06:15:13;33.42;;;30.23;;
51594;SDS011;37677;53.254;6.594;2023-06-22T06:17:46;32.55;;;29.33;;
51594;SDS011;37677;53.254;6.594;2023-06-22T06:20:17;35.92;;;32.30;;
51594;SDS011;37677;53.254;6.594;2023-06-22T06:22:45;37.33;;;33.30;;
51594;SDS011;37677;53.254;6.594;2023-06-22T06:25:12;34.17;;;30.95;;
51594;SDS011;37677;53.254;6.594;2023-06-22T06:27:43;34.70;;;31.30;;
51594;SDS011;37677;53.254;6.594;2023-06-22T06:30:10;35.58;;;31.95;;
51594;SDS011;37677;53.254;6.594;2023-06-22T06:32:40;35.45;;;31.77;;
51594;SDS011;37677;53.254;6.594;2023-06-22T06:35:06;34.67;;;31.25;;
51594;SDS011;37677;53.254;6.594;2023-06-22T06:37:36;33.28;;;30.00;;
51594;SDS011;37677;53.254;6.594;2023-06-22T06:40:03;44.72;;;30.35;;
51594;SDS011;37677;53.254;6.594;2023-06-22T06:42:30;31.85;;;28.60;;
51594;SDS011;37677;53.254;6.594;2023-06-22T06:44:57;30.63;;;27.52;;
51594;SDS011;37677;53.254;6.594;2023-06-22T06:47:26;26.88;;;24.10;;
51594;SDS011;37677;53.254;6.594;2023-06-22T06:49:55;24.50;;;22.17;;
51594;SDS011;37677;53.254;6.594;2023-06-22T06:52:21;22.33;;;20.08;;
51594;SDS011;37677;53.254;6.594;2023-06-22T06:54:49;22.65;;;20.20;;
51594;SDS011;37677;53.254;6.594;2023-06-22T06:57:20;20.75;;;18.65;;
51594;SDS011;37677;53.254;6.594;2023-06-22T06:59:47;22.17;;;18.33;;
51594;SDS011;37677;53.254;6.594;2023-06-22T07:02:14;22.42;;;20.08;;
51594;SDS011;37677;53.254;6.594;2023-06-22T07:04:41;21.52;;;19.23;;
51594;SDS011;37677;53.254;6.594;2023-06-22T07:07:11;26.15;;;21.63;;
51594;SDS011;37677;53.254;6.594;2023-06-22T07:09:48;22.05;;;19.90;;
51594;SDS011;37677;53.254;6.594;2023-06-22T07:12:17;21.05;;;19.05;;
51594;SDS011;37677;53.254;6.594;2023-06-22T07:14:43;24.92;;;22.23;;
51594;SDS011;37677;53.254;6.594;2023-06-22T07:17:09;22.75;;;20.48;;
51594;SDS011;37677;53.254;6.594;2023-06-22T07:19:35;22.70;;;19.80;;
51594;SDS011;37677;53.254;6.594;2023-06-22T07:22:02;23.95;;;20.85;;
51594;SDS011;37677;53.254;6.594;2023-06-22T07:24:28;20.42;;;18.63;;
51594;SDS011;37677;53.254;6.594;2023-06-22T07:26:54;18.58;;;14.75;;
51594;SDS011;37677;53.254;6.594;2023-06-22T07:29:27;17.38;;;13.25;;
51594;SDS011;37677;53.254;6.594;2023-06-22T07:31:53;13.23;;;11.80;;
51594;SDS011;37677;53.254;6.594;2023-06-22T07:34:21;12.73;;;11.55;;
51594;SDS011;37677;53.254;6.594;2023-06-22T07:36:47;10.68;;;9.57;;
51594;SDS011;37677;53.254;6.594;2023-06-22T07:39:13;13.07;;;8.80;;
51594;SDS011;37677;53.254;6.594;2023-06-22T07:41:40;9.98;;;8.93;;
51594;SDS011;37677;53.254;6.594;2023-06-22T07:44:07;9.70;;;8.65;;
51594;SDS011;37677;53.254;6.594;2023-06-22T07:46:34;9.88;;;8.88;;
51594;SDS011;37677;53.254;6.594;2023-06-22T07:49:01;10.80;;;9.80;;
51594;SDS011;37677;53.254;6.594;2023-06-22T07:51:28;9.52;;;8.50;;
51594;SDS011;37677;53.254;6.594;2023-06-22T07:53:54;10.90;;;9.75;;
51594;SDS011;37677;53.254;6.594;2023-06-22T07:56:20;11.55;;;8.20;;
51594;SDS011;37677;53.254;6.594;2023-06-22T07:58:46;10.25;;;8.05;;
51594;SDS011;37677;53.254;6.594;2023-06-22T08:01:18;11.13;;;8.95;;
51594;SDS011;37677;53.254;6.594;2023-06-22T08:03:48;14.68;;;9.93;;
51594;SDS011;37677;53.254;6.594;2023-06-22T08:06:15;17.90;;;11.10;;
51594;SDS011;37677;53.254;6.594;2023-06-22T08:08:41;11.15;;;10.02;;
51594;SDS011;37677;53.254;6.594;2023-06-22T08:11:14;12.65;;;9.75;;
51594;SDS011;37677;53.254;6.594;2023-06-22T08:13:40;10.40;;;9.07;;
51594;SDS011;37677;53.254;6.594;2023-06-22T08:16:06;9.20;;;8.40;;
51594;SDS011;37677;53.254;6.594;2023-06-22T08:18:33;11.82;;;8.00;;
51594;SDS011;37677;53.254;6.594;2023-06-22T08:20:59;9.05;;;8.15;;
51594;SDS011;37677;53.254;6.594;2023-06-22T08:23:26;8.82;;;7.60;;
51594;SDS011;37677;53.254;6.594;2023-06-22T08:25:52;8.55;;;7.55;;
51594;SDS011;37677;53.254;6.594;2023-06-22T08:28:19;8.68;;;7.45;;
51594;SDS011;37677;53.254;6.594;2023-06-22T08:30:48;10.73;;;7.60;;
51594;SDS011;37677;53.254;6.594;2023-06-22T08:33:14;9.73;;;7.07;;
51594;SDS011;37677;53.254;6.594;2023-06-22T08:35:40;7.22;;;6.50;;
51594;SDS011;37677;53.254;6.594;2023-06-22T08:38:08;7.68;;;6.68;;
51594;SDS011;37677;53.254;6.594;2023-06-22T08:40:35;7.90;;;7.05;;
51594;SDS011;37677;53.254;6.594;2023-06-22T08:43:02;8.80;;;7.22;;
51594;SDS011;37677;53.254;6.594;2023-06-22T08:45:28;8.15;;;7.32;;
51594;SDS011;37677;53.254;6.594;2023-06-22T08:47:54;8.32;;;6.15;;
51594;SDS011;37677;53.254;6.594;2023-06-22T08:50:23;8.55;;;6.80;;
51594;SDS011;37677;53.254;6.594;2023-06-22T08:52:49;8.23;;;7.22;;
51594;SDS011;37677;53.254;6.594;2023-06-22T08:55:18;7.70;;;6.63;;
51594;SDS011;37677;53.254;6.594;2023-06-22T08:57:45;6.78;;;6.07;;
51594;SDS011;37677;53.254;6.594;2023-06-22T09:00:11;10.95;;;6.20;;
51594;SDS011;37677;53.254;6.594;2023-06-22T09:02:42;14.07;;;5.78;;
51594;SDS011;37677;53.254;6.594;2023-06-22T09:05:08;6.40;;;5.70;;
51594;SDS011;37677;53.254;6.594;2023-06-22T09:07:34;7.70;;;6.90;;
51594;SDS011;37677;53.254;6.594;2023-06-22T09:10:00;7.05;;;6.03;;
51594;SDS011;37677;53.254;6.594;2023-06-22T09:12:29;8.50;;;6.53;;
51594;SDS011;37677;53.254;6.594;2023-06-22T09:14:55;7.32;;;6.57;;
51594;SDS011;37677;53.254;6.594;2023-06-22T09:17:22;9.30;;;7.28;;
51594;SDS011;37677;53.254;6.594;2023-06-22T09:19:48;7.93;;;7.10;;
51594;SDS011;37677;53.254;6.594;2023-06-22T09:22:15;10.05;;;6.70;;
51594;SDS011;37677;53.254;6.594;2023-06-22T09:24:42;8.07;;;7.22;;
51594;SDS011;37677;53.254;6.594;2023-06-22T09:27:08;7.85;;;7.15;;
51594;SDS011;37677;53.254;6.594;2023-06-22T09:29:47;11.07;;;7.88;;
51594;SDS011;37677;53.254;6.594;2023-06-22T09:32:13;9.63;;;7.63;;
51594;SDS011;37677;53.254;6.594;2023-06-22T09:34:39;8.73;;;7.53;;
51594;SDS011;37677;53.254;6.594;2023-06-22T09:37:06;10.05;;;6.95;;
51594;SDS011;37677;53.254;6.594;2023-06-22T09:39:35;9.32;;;7.07;;
51594;SDS011;37677;53.254;6.594;2023-06-22T09:42:02;8.05;;;6.13;;
51594;SDS011;37677;53.254;6.594;2023-06-22T09:44:28;7.50;;;6.80;;
51594;SDS011;37677;53.254;6.594;2023-06-22T09:46:54;8.25;;;6.63;;
51594;SDS011;37677;53.254;6.594;2023-06-22T09:49:22;7.82;;;6.82;;
51594;SDS011;37677;53.254;6.594;2023-06-22T09:51:48;7.10;;;6.15;;
51594;SDS011;37677;53.254;6.594;2023-06-22T09:54:16;7.20;;;6.45;;
51594;SDS011;37677;53.254;6.594;2023-06-22T09:56:45;7.55;;;6.60;;
51594;SDS011;37677;53.254;6.594;2023-06-22T09:59:13;7.70;;;6.90;;
51594;SDS011;37677;53.254;6.594;2023-06-22T10:01:39;6.70;;;6.00;;
51594;SDS011;37677;53.254;6.594;2023-06-22T10:04:08;8.93;;;7.00;;
51594;SDS011;37677;53.254;6.594;2023-06-22T10:06:34;9.25;;;7.10;;
51594;SDS011;37677;53.254;6.594;2023-06-22T10:09:00;7.95;;;6.93;;
51594;SDS011;37677;53.254;6.594;2023-06-22T10:14:07;9.27;;;6.95;;
51594;SDS011;37677;53.254;6.594;2023-06-22T10:19:20;8.07;;;6.68;;
51594;SDS011;37677;53.254;6.594;2023-06-22T10:21:46;7.72;;;6.93;;
51594;SDS011;37677;53.254;6.594;2023-06-22T10:24:13;9.50;;;7.90;;
51594;SDS011;37677;53.254;6.594;2023-06-22T10:26:41;7.82;;;6.97;;
51594;SDS011;37677;53.254;6.594;2023-06-22T10:29:07;8.57;;;7.03;;
51594;SDS011;37677;53.254;6.594;2023-06-22T10:31:33;10.20;;;8.32;;
51594;SDS011;37677;53.254;6.594;2023-06-22T10:34:02;8.02;;;7.20;;
51594;SDS011;37677;53.254;6.594;2023-06-22T10:36:28;7.60;;;6.78;;
51594;SDS011;37677;53.254;6.594;2023-06-22T10:39:13;8.85;;;7.60;;
51594;SDS011;37677;53.254;6.594;2023-06-22T10:41:40;8.82;;;6.85;;
51594;SDS011;37677;53.254;6.594;2023-06-22T10:44:06;9.30;;;7.47;;
51594;SDS011;37677;53.254;6.594;2023-06-22T10:46:36;7.47;;;6.65;;
51594;SDS011;37677;53.254;6.594;2023-06-22T10:49:02;7.13;;;5.70;;
51594;SDS011;37677;53.254;6.594;2023-06-22T10:51:28;8.77;;;6.13;;
51594;SDS011;37677;53.254;6.594;2023-06-22T10:53:56;7.82;;;7.03;;
51594;SDS011;37677;53.254;6.594;2023-06-22T10:56:22;7.85;;;7.07;;
51594;SDS011;37677;53.254;6.594;2023-06-22T10:58:48;9.50;;;7.20;;
51594;SDS011;37677;53.254;6.594;2023-06-22T11:01:14;8.27;;;7.47;;
51594;SDS011;37677;53.254;6.594;2023-06-22T11:03:40;10.65;;;7.30;;
51594;SDS011;37677;53.254;6.594;2023-06-22T11:06:09;7.35;;;6.45;;
51594;SDS011;37677;53.254;6.594;2023-06-22T11:08:38;7.68;;;6.53;;
51594;SDS011;37677;53.254;6.594;2023-06-22T11:11:04;8.18;;;6.93;;
51594;SDS011;37677;53.254;6.594;2023-06-22T11:13:31;8.63;;;7.38;;
51594;SDS011;37677;53.254;6.594;2023-06-22T11:15:57;8.20;;;7.40;;
51594;SDS011;37677;53.254;6.594;2023-06-22T11:18:23;9.35;;;7.85;;
51594;SDS011;37677;53.254;6.594;2023-06-22T11:20:49;7.63;;;6.93;;
51594;SDS011;37677;53.254;6.594;2023-06-22T11:23:18;9.80;;;8.02;;
51594;SDS011;37677;53.254;6.594;2023-06-22T11:25:45;10.93;;;7.60;;
51594;SDS011;37677;53.254;6.594;2023-06-22T11:28:14;7.18;;;5.57;;
51594;SDS011;37677;53.254;6.594;2023-06-22T11:30:40;8.60;;;7.68;;
51594;SDS011;37677;53.254;6.594;2023-06-22T11:33:08;8.30;;;6.68;;
51594;SDS011;37677;53.254;6.594;2023-06-22T11:35:34;9.18;;;7.53;;
51594;SDS011;37677;53.254;6.594;2023-06-22T11:38:01;9.88;;;6.40;;
51594;SDS011;37677;53.254;6.594;2023-06-22T11:40:28;8.00;;;6.60;;
51594;SDS011;37677;53.254;6.594;2023-06-22T11:42:57;7.68;;;6.97;;
51594;SDS011;37677;53.254;6.594;2023-06-22T11:45:23;9.05;;;5.63;;
51594;SDS011;37677;53.254;6.594;2023-06-22T11:47:52;14.82;;;6.80;;
51594;SDS011;37677;53.254;6.594;2023-06-22T11:50:18;22.80;;;6.82;;
51594;SDS011;37677;53.254;6.594;2023-06-22T11:52:45;12.38;;;6.75;;
51594;SDS011;37677;53.254;6.594;2023-06-22T11:55:22;10.60;;;7.38;;
51594;SDS011;37677;53.254;6.594;2023-06-22T11:58:06;25.45;;;10.02;;
51594;SDS011;37677;53.254;6.594;2023-06-22T12:00:40;19.13;;;6.93;;
51594;SDS011;37677;53.254;6.594;2023-06-22T12:03:22;7.63;;;5.93;;
51594;SDS011;37677;53.254;6.594;2023-06-22T12:05:49;9.38;;;7.03;;
51594;SDS011;37677;53.254;6.594;2023-06-22T12:08:15;7.88;;;5.78;;
51594;SDS011;37677;53.254;6.594;2023-06-22T12:10:46;7.78;;;5.50;;
51594;SDS011;37677;53.254;6.594;2023-06-22T12:13:15;6.38;;;5.72;;
51594;SDS011;37677;53.254;6.594;2023-06-22T12:15:44;7.15;;;5.30;;
51594;SDS011;37677;53.254;6.594;2023-06-22T12:18:20;11.73;;;4.80;;
51594;SDS011;37677;53.254;6.594;2023-06-22T12:20:46;8.55;;;5.20;;
51594;SDS011;37677;53.254;6.594;2023-06-22T12:26:16;7.18;;;5.78;;
51594;SDS011;37677;53.254;6.594;2023-06-22T12:29:18;9.93;;;6.13;;
51594;SDS011;37677;53.254;6.594;2023-06-22T12:31:44;6.35;;;5.68;;
51594;SDS011;37677;53.254;6.594;2023-06-22T12:34:10;7.05;;;5.22;;
51594;SDS011;37677;53.254;6.594;2023-06-22T12:36:42;5.90;;;5.10;;
51594;SDS011;37677;53.254;6.594;2023-06-22T12:39:28;7.57;;;5.10;;
51594;SDS011;37677;53.254;6.594;2023-06-22T12:42:32;8.55;;;4.82;;
51594;SDS011;37677;53.254;6.594;2023-06-22T12:44:59;6.63;;;4.60;;
51594;SDS011;37677;53.254;6.594;2023-06-22T12:47:25;6.85;;;4.50;;
51594;SDS011;37677;53.254;6.594;2023-06-22T12:49:51;6.65;;;5.03;;
51594;SDS011;37677;53.254;6.594;2023-06-22T12:52:23;7.20;;;4.88;;
51594;SDS011;37677;53.254;6.594;2023-06-22T12:54:52;8.35;;;5.45;;
51594;SDS011;37677;53.254;6.594;2023-06-22T12:57:19;6.38;;;4.38;;
51594;SDS011;37677;53.254;6.594;2023-06-22T12:59:45;6.30;;;4.15;;
51594;SDS011;37677;53.254;6.594;2023-06-22T13:02:19;4.70;;;4.03;;
51594;SDS011;37677;53.254;6.594;2023-06-22T13:04:45;9.73;;;3.72;;
51594;SDS011;37677;53.254;6.594;2023-06-22T13:07:14;4.80;;;3.47;;
51594;SDS011;37677;53.254;6.594;2023-06-22T13:09:42;4.10;;;3.25;;
51594;SDS011;37677;53.254;6.594;2023-06-22T13:12:12;5.07;;;3.35;;
51594;SDS011;37677;53.254;6.594;2023-06-22T13:14:44;3.50;;;3.20;;
51594;SDS011;37677;53.254;6.594;2023-06-22T13:17:14;4.22;;;3.40;;
51594;SDS011;37677;53.254;6.594;2023-06-22T13:19:41;4.45;;;3.70;;
51594;SDS011;37677;53.254;6.594;2023-06-22T13:22:26;4.35;;;3.30;;
51594;SDS011;37677;53.254;6.594;2023-06-22T13:24:55;3.15;;;2.85;;
51594;SDS011;37677;53.254;6.594;2023-06-22T13:27:22;3.80;;;2.88;;
51594;SDS011;37677;53.254;6.594;2023-06-22T13:29:48;4.18;;;3.10;;
51594;SDS011;37677;53.254;6.594;2023-06-22T13:32:15;3.45;;;2.83;;
51594;SDS011;37677;53.254;6.594;2023-06-22T13:34:41;3.95;;;3.10;;
51594;SDS011;37677;53.254;6.594;2023-06-22T13:37:07;3.72;;;3.00;;
51594;SDS011;37677;53.254;6.594;2023-06-22T13:39:35;5.13;;;2.90;;
51594;SDS011;37677;53.254;6.594;2023-06-22T13:42:03;4.80;;;2.78;;
51594;SDS011;37677;53.254;6.594;2023-06-22T13:44:29;5.07;;;3.05;;
51594;SDS011;37677;53.254;6.594;2023-06-22T13:46:55;2.97;;;2.50;;
51594;SDS011;37677;53.254;6.594;2023-06-22T13:49:22;13.25;;;3.10;;
51594;SDS011;37677;53.254;6.594;2023-06-22T13:51:48;4.20;;;2.65;;
51594;SDS011;37677;53.254;6.594;2023-06-22T13:54:22;4.18;;;2.65;;
51594;SDS011;37677;53.254;6.594;2023-06-22T13:56:49;4.85;;;2.90;;
51594;SDS011;37677;53.254;6.594;2023-06-22T13:59:19;4.68;;;2.95;;
51594;SDS011;37677;53.254;6.594;2023-06-22T14:04:40;5.35;;;3.20;;
51594;SDS011;37677;53.254;6.594;2023-06-22T14:07:15;4.90;;;3.55;;
51594;SDS011;37677;53.254;6.594;2023-06-22T14:09:44;4.95;;;3.13;;
51594;SDS011;37677;53.254;6.594;2023-06-22T14:12:11;5.05;;;2.50;;
51594;SDS011;37677;53.254;6.594;2023-06-22T14:14:40;3.47;;;2.67;;
51594;SDS011;37677;53.254;6.594;2023-06-22T14:17:09;5.47;;;2.80;;
51594;SDS011;37677;53.254;6.594;2023-06-22T14:19:36;3.47;;;2.58;;
51594;SDS011;37677;53.254;6.594;2023-06-22T14:22:02;6.47;;;2.55;;
51594;SDS011;37677;53.254;6.594;2023-06-22T14:24:28;5.00;;;2.45;;
51594;SDS011;37677;53.254;6.594;2023-06-22T14:27:03;6.82;;;2.28;;
51594;SDS011;37677;53.254;6.594;2023-06-22T14:29:43;5.43;;;2.50;;
51594;SDS011;37677;53.254;6.594;2023-06-22T14:35:16;3.22;;;2.00;;
51594;SDS011;37677;53.254;6.594;2023-06-22T14:37:48;4.15;;;1.90;;
51594;SDS011;37677;53.254;6.594;2023-06-22T14:40:17;3.58;;;1.98;;
51594;SDS011;37677;53.254;6.594;2023-06-22T14:42:47;3.55;;;2.20;;
51594;SDS011;37677;53.254;6.594;2023-06-22T14:45:25;2.97;;;2.08;;
51594;SDS011;37677;53.254;6.594;2023-06-22T14:47:52;3.65;;;2.33;;
51594;SDS011;37677;53.254;6.594;2023-06-22T14:50:18;3.83;;;1.90;;
51594;SDS011;37677;53.254;6.594;2023-06-22T14:52:44;7.30;;;1.90;;
51594;SDS011;37677;53.254;6.594;2023-06-22T14:55:13;5.00;;;1.85;;
51594;SDS011;37677;53.254;6.594;2023-06-22T14:57:57;3.35;;;2.08;;
51594;SDS011;37677;53.254;6.594;2023-06-22T15:00:25;3.17;;;1.88;;
51594;SDS011;37677;53.254;6.594;2023-06-22T15:02:51;4.28;;;1.80;;
51594;SDS011;37677;53.254;6.594;2023-06-22T15:05:19;2.75;;;1.70;;
51594;SDS011;37677;53.254;6.594;2023-06-22T15:07:46;2.97;;;1.90;;
51594;SDS011;37677;53.254;6.594;2023-06-22T15:10:14;2.28;;;1.77;;
51594;SDS011;37677;53.254;6.594;2023-06-22T15:12:44;4.47;;;1.90;;
51594;SDS011;37677;53.254;6.594;2023-06-22T15:15:10;4.72;;;2.15;;
51594;SDS011;37677;53.254;6.594;2023-06-22T15:17:39;2.33;;;1.73;;
51594;SDS011;37677;53.254;6.594;2023-06-22T15:20:06;5.03;;;2.10;;
51594;SDS011;37677;53.254;6.594;2023-06-22T15:22:32;2.97;;;1.70;;
51594;SDS011;37677;53.254;6.594;2023-06-22T15:24:58;2.67;;;2.03;;
51594;SDS011;37677;53.254;6.594;2023-06-22T15:27:24;2.75;;;1.77;;
51594;SDS011;37677;53.254;6.594;2023-06-22T15:29:50;3.13;;;1.90;;
51594;SDS011;37677;53.254;6.594;2023-06-22T15:32:16;3.03;;;1.85;;
51594;SDS011;37677;53.254;6.594;2023-06-22T15:34:43;2.40;;;1.60;;
51594;SDS011;37677;53.254;6.594;2023-06-22T15:37:09;2.72;;;1.73;;
51594;SDS011;37677;53.254;6.594;2023-06-22T15:39:35;2.60;;;1.58;;
51594;SDS011;37677;53.254;6.594;2023-06-22T15:42:01;3.55;;;1.70;;